Time;durP1;ratioP1;P1;durP2;ratioP2;P2;SDS_P1;SDS_P2;PMS_P1;PMS_P2;Temp;Humidity;BMP_temperature;BMP_pressure;BME280_temperature;BME280_humidity;BME280_pressure;Samples;Min_cycle;Max_cycle;Signal;HPM_P1;HPM_P2
2022/05/12 00:02:02;;;;;;;6.60;3.60;;;;;;;13.82;91.81;100214.95;105420;1287;62139;-83
2022/05/12 00:04:33;;;;;;;8.50;3.00;;;;;;;13.79;91.58;100216.23;105241;1287;62032;-83
2022/05/12 00:07:00;;;;;;;8.70;2.90;;;;;;;13.77;91.81;100231.64;105141;1287;75802;-87
2022/05/12 00:09:28;;;;;;;8.30;3.10;;;;;;;13.74;92.84;100245.80;106003;1286;71723;-82
2022/05/12 00:11:57;;;;;;;6.00;3.20;;;;;;;13.70;93.07;100261.89;105688;1287;72930;-83
2022/05/12 00:14:31;;;;;;;5.50;3.00;;;;;;;13.67;94.15;100249.13;106429;1287;62048;-83
2022/05/12 00:17:01;;;;;;;9.60;3.90;;;;;;;13.64;93.39;100234.33;107024;1286;61525;-83
2022/05/12 00:22:06;;;;;;;9.50;3.90;;;;;;;13.58;93.19;100250.98;105408;1279;66663;-83
2022/05/12 00:24:37;;;;;;;12.50;4.20;;;;;;;13.53;92.91;100238.44;104974;1284;74350;-83
2022/05/12 00:27:04;;;;;;;10.00;3.30;;;;;;;13.49;92.74;100239.30;105464;1284;61994;-83
2022/05/12 00:29:31;;;;;;;8.70;3.20;;;;;;;13.45;92.57;100247.05;105412;1285;60648;-83
2022/05/12 00:31:58;;;;;;;15.00;3.60;;;;;;;13.43;92.25;100248.64;105263;1285;77174;-84
2022/05/12 00:34:24;;;;;;;12.00;3.60;;;;;;;13.39;92.58;100240.45;106018;1284;71784;-84
2022/05/12 00:36:54;;;;;;;7.40;3.30;;;;;;;13.35;93.05;100245.77;105836;1284;74127;-83
2022/05/12 00:39:22;;;;;;;13.60;5.80;;;;;;;13.32;93.96;100244.05;107289;1284;62990;-83
2022/05/12 00:41:57;;;;;;;8.00;3.10;;;;;;;13.29;94.45;100242.64;107211;1284;60974;-84
2022/05/12 00:44:28;;;;;;;7.90;3.80;;;;;;;13.27;94.20;100237.90;106327;1284;75309;-84
2022/05/12 00:47:06;;;;;;;8.50;3.60;;;;;;;13.25;95.27;100243.16;106892;1283;71402;-85
2022/05/12 00:49:50;;;;;;;10.20;4.30;;;;;;;13.24;96.33;100252.17;105532;1284;75213;-84
2022/05/12 00:52:29;;;;;;;7.10;3.50;;;;;;;13.23;97.33;100259.29;105435;1284;62103;-83
2022/05/12 00:55:08;;;;;;;12.60;3.40;;;;;;;13.21;97.56;100251.70;105147;1285;60556;-83
2022/05/12 00:57:50;;;;;;;12.90;3.60;;;;;;;13.20;97.90;100253.23;105565;1284;75557;-83
2022/05/12 01:00:27;;;;;;;10.40;3.30;;;;;;;13.19;98.21;100239.73;105411;1284;71096;-84
2022/05/12 01:03:02;;;;;;;7.60;3.50;;;;;;;13.18;98.28;100237.70;105600;1284;72904;-83
2022/05/12 01:05:36;;;;;;;9.70;3.50;;;;;;;13.17;98.97;100234.98;105454;1284;62280;-83
2022/05/12 01:08:10;;;;;;;15.00;4.00;;;;;;;13.16;98.79;100234.77;105924;1283;60655;-83
2022/05/12 01:10:50;;;;;;;8.50;2.90;;;;;;;13.16;98.82;100237.33;105439;1284;79510;-84
2022/05/12 01:13:30;;;;;;;10.00;3.90;;;;;;;13.15;99.03;100238.59;105290;1284;71468;-83
2022/05/12 01:16:10;;;;;;;10.40;4.60;;;;;;;13.16;99.29;100245.81;105343;1283;72838;-84
2022/05/12 01:18:44;;;;;;;13.40;5.10;;;;;;;13.16;99.41;100256.66;105300;1283;62064;-86
2022/05/12 01:21:18;;;;;;;6.20;4.20;;;;;;;13.20;99.42;100256.35;105418;1285;60829;-83
2022/05/12 01:23:48;;;;;;;10.90;4.80;;;;;;;13.25;99.06;100261.80;105516;1284;62068;-85
2022/05/12 01:26:14;;;;;;;9.80;2.90;;;;;;;13.32;98.51;100267.05;105687;1285;70499;-83
2022/05/12 01:28:49;;;;;;;12.20;2.70;;;;;;;13.36;97.52;100263.19;105596;1286;73028;-83
2022/05/12 01:31:22;;;;;;;4.10;2.10;;;;;;;13.41;97.05;100277.30;106911;1284;62065;-83
2022/05/12 01:33:51;;;;;;;6.30;2.80;;;;;;;13.46;96.64;100280.20;106981;1285;62049;-83
2022/05/12 01:36:21;;;;;;;5.40;3.00;;;;;;;13.51;96.20;100281.36;106753;1286;77374;-85
2022/05/12 01:38:48;;;;;;;8.20;3.20;;;;;;;13.54;95.90;100286.13;106221;1287;71578;-84
2022/05/12 01:41:16;;;;;;;4.70;2.30;;;;;;;13.57;95.57;100291.09;106669;1284;72068;-85
2022/05/12 01:43:43;;;;;;;4.70;2.20;;;;;;;13.59;95.11;100289.14;105231;1285;62116;-83
2022/05/12 01:46:13;;;;;;;6.00;2.80;;;;;;;13.61;94.73;100275.70;105378;1284;62133;-82
2022/05/12 01:48:47;;;;;;;5.30;2.10;;;;;;;13.61;94.67;100282.46;105210;1286;78199;-84
2022/05/12 01:51:19;;;;;;;7.20;2.60;;;;;;;13.60;94.44;100296.29;105126;1286;71515;-84
2022/05/12 01:53:55;;;;;;;2.80;1.70;;;;;;;13.59;93.90;100301.73;105505;1285;72799;-83
2022/05/12 01:56:21;;;;;;;4.30;1.80;;;;;;;13.58;94.28;100309.69;105622;1286;63054;-83
2022/05/12 01:58:48;;;;;;;5.40;1.90;;;;;;;13.55;93.93;100315.30;105491;1285;62289;-83
2022/05/12 02:01:17;;;;;;;4.40;2.00;;;;;;;13.53;93.84;100322.45;105443;1285;77154;-83
2022/05/12 02:03:46;;;;;;;7.30;2.00;;;;;;;13.52;93.93;100323.91;105534;1284;73889;-84
2022/05/12 02:06:13;;;;;;;5.90;2.10;;;;;;;13.49;94.08;100329.11;105777;1284;75625;-83
2022/05/12 02:08:39;;;;;;;3.40;2.20;;;;;;;13.46;93.51;100326.98;105730;1285;62214;-84
2022/05/12 02:11:08;;;;;;;7.70;2.00;;;;;;;13.41;92.29;100344.44;105700;1286;62076;-83
2022/05/12 02:13:35;;;;;;;4.40;1.70;;;;;;;13.43;91.00;100343.52;105366;1285;76521;-83
2022/05/12 02:16:07;;;;;;;4.80;2.50;;;;;;;13.42;90.73;100344.67;105368;1286;71446;-84
2022/05/12 02:18:37;;;;;;;3.90;1.70;;;;;;;13.43;88.00;100372.23;105229;1285;74003;-83
2022/05/12 02:21:06;;;;;;;2.10;1.30;;;;;;;13.41;86.10;100376.91;105200;1286;63132;-84
2022/05/12 02:23:34;;;;;;;3.30;1.20;;;;;;;13.40;82.80;100392.23;105073;1285;62136;-83
2022/05/12 02:26:02;;;;;;;2.00;1.00;;;;;;;13.36;81.24;100398.41;105130;1285;75888;-83
2022/05/12 02:28:36;;;;;;;4.60;1.20;;;;;;;13.30;80.73;100391.89;105349;1284;72562;-83
2022/05/12 02:31:16;;;;;;;1.20;0.80;;;;;;;13.22;80.55;100401.82;104709;1286;74304;-82
2022/05/12 02:33:53;;;;;;;2.30;1.90;;;;;;;13.10;80.25;100421.84;105413;1274;62177;-83
2022/05/12 02:36:23;;;;;;;3.90;1.00;;;;;;;12.98;79.55;100433.13;106661;1285;62062;-83
2022/05/12 02:38:51;;;;;;;3.20;0.70;;;;;;;12.88;79.44;100432.30;106606;1287;75772;-83
2022/05/12 02:41:18;;;;;;;2.50;0.80;;;;;;;12.77;79.35;100462.66;106464;1285;60032;-84
2022/05/12 02:43:45;;;;;;;1.20;0.60;;;;;;;12.68;79.48;100463.34;105395;1285;73180;-84
2022/05/12 02:46:16;;;;;;;3.30;1.20;;;;;;;12.59;77.88;100487.80;105517;1285;62246;-84
2022/05/12 02:48:46;;;;;;;4.30;0.80;;;;;;;12.50;77.07;100470.95;104878;1285;62068;-85
2022/05/12 02:51:16;;;;;;;2.60;0.80;;;;;;;12.41;76.88;100484.63;104845;1285;78295;-83
2022/05/12 02:53:48;;;;;;;2.90;1.20;;;;;;;12.34;76.40;100488.21;105088;1285;73469;-84
2022/05/12 02:56:26;;;;;;;3.00;0.90;;;;;;;12.27;76.57;100504.52;105075;1285;72812;-82
2022/05/12 02:59:00;;;;;;;2.20;0.80;;;;;;;12.21;77.78;100492.27;104769;1285;64490;-85
2022/05/12 03:01:35;;;;;;;3.40;1.10;;;;;;;12.12;78.01;100508.30;105160;1285;62215;-84
2022/05/12 03:04:06;;;;;;;4.70;1.10;;;;;;;12.08;78.44;100516.45;105274;1285;77281;-83
2022/05/12 03:06:32;;;;;;;5.30;0.70;;;;;;;12.03;78.46;100517.18;105347;1285;71766;-83
2022/05/12 03:09:03;;;;;;;1.90;0.70;;;;;;;12.00;78.76;100527.16;105311;1285;72886;-82
2022/05/12 03:11:30;;;;;;;2.10;0.70;;;;;;;11.95;78.79;100530.38;105294;1285;63248;-84
2022/05/12 03:13:59;;;;;;;5.00;0.90;;;;;;;11.91;78.23;100529.84;105271;1285;62118;-83
2022/05/12 03:16:27;;;;;;;1.80;0.50;;;;;;;11.89;78.05;100537.02;105280;1285;77073;-83
2022/05/12 03:18:56;;;;;;;3.10;0.90;;;;;;;11.87;78.62;100549.27;104771;1288;71242;-83
2022/05/12 03:21:26;;;;;;;2.30;1.00;;;;;;;11.83;78.87;100553.48;105223;1285;73027;-82
2022/05/12 03:23:53;;;;;;;1.90;0.90;;;;;;;11.79;79.21;100560.27;105131;1285;63494;-83
2022/05/12 03:26:22;;;;;;;1.50;0.60;;;;;;;11.75;78.26;100566.31;105155;1285;61414;-83
2022/05/12 03:28:49;;;;;;;2.80;0.90;;;;;;;11.71;79.02;100563.60;105124;1285;75769;-85
2022/05/12 03:31:26;;;;;;;1.30;0.60;;;;;;;11.66;79.24;100565.25;104941;1287;72590;-83
2022/05/12 03:34:00;;;;;;;2.70;0.60;;;;;;;11.60;79.38;100576.38;105112;1285;72974;-84
2022/05/12 03:36:35;;;;;;;4.20;1.00;;;;;;;11.57;79.41;100584.92;105354;1287;62744;-82
2022/05/12 03:39:03;;;;;;;5.60;0.70;;;;;;;11.53;79.76;100588.22;105606;1285;61877;-83
2022/05/12 03:41:31;;;;;;;1.30;0.60;;;;;;;11.48;79.43;100607.61;105468;1285;76952;-83
2022/05/12 03:46:43;;;;;;;1.50;0.70;;;;;;;11.39;80.11;100606.95;106921;1285;74059;-83
2022/05/12 03:49:10;;;;;;;2.20;0.90;;;;;;;11.32;80.00;100619.27;106129;1287;62331;-83
2022/05/12 03:51:39;;;;;;;3.70;0.70;;;;;;;11.27;80.51;100617.36;105294;1285;62046;-84
2022/05/12 03:54:10;;;;;;;1.40;0.70;;;;;;;11.20;80.55;100625.30;105333;1285;75519;-83
2022/05/12 03:56:43;;;;;;;2.90;0.70;;;;;;;11.15;80.60;100624.56;105283;1285;72484;-83
2022/05/12 03:59:13;;;;;;;1.50;0.80;;;;;;;11.10;81.27;100635.71;105215;1285;72959;-83
2022/05/12 04:01:40;;;;;;;1.60;0.50;;;;;;;11.05;81.79;100638.54;105171;1285;64609;-83
2022/05/12 04:04:14;;;;;;;1.60;0.80;;;;;;;11.00;82.06;100646.38;106115;1274;60539;-84
2022/05/12 04:06:46;;;;;;;1.50;0.70;;;;;;;10.96;81.93;100653.25;105169;1284;75802;-83
2022/05/12 04:09:30;;;;;;;3.40;1.10;;;;;;;10.92;82.15;100661.64;105242;1274;71352;31
2022/05/12 04:12:14;;;;;;;2.50;0.70;;;;;;;10.87;82.80;100666.81;106605;1274;74621;-82
2022/05/12 04:14:42;;;;;;;2.90;1.10;;;;;;;10.85;83.00;100672.22;105806;1284;62238;-84
2022/05/12 04:17:13;;;;;;;2.30;1.10;;;;;;;10.83;82.81;100678.92;105546;1285;60620;-82
2022/05/12 04:19:41;;;;;;;3.80;0.80;;;;;;;10.84;83.11;100690.39;106120;1285;75744;-83
2022/05/12 04:22:14;;;;;;;2.50;0.80;;;;;;;10.84;83.33;100693.38;105370;1284;70379;-83
2022/05/12 04:24:46;;;;;;;3.20;0.80;;;;;;;10.84;83.48;100703.33;105192;1287;73046;-84
2022/05/12 04:27:16;;;;;;;1.90;0.60;;;;;;;10.84;83.46;100714.90;105234;1278;63566;-83
2022/05/12 04:29:53;;;;;;;;;;;;;;;10.85;83.48;100712.85;105740;1287;62096;-83
2022/05/12 04:32:44;;;;;;;3.30;1.00;;;;;;;10.85;83.48;100721.04;105071;1287;75668;-83
2022/05/12 04:35:24;;;;;;;2.30;0.90;;;;;;;10.83;83.85;100728.35;105209;1286;71537;-83
2022/05/12 04:37:58;;;;;;;3.10;1.00;;;;;;;10.80;84.32;100727.44;105297;1284;72933;-82
2022/05/12 04:40:31;;;;;;;5.40;1.20;;;;;;;10.76;84.17;100735.45;105425;1285;63884;-82
2022/05/12 04:42:59;;;;;;;6.60;1.30;;;;;;;10.75;84.20;100738.05;105821;1287;62038;-82
2022/05/12 04:45:29;;;;;;;3.90;0.90;;;;;;;10.75;84.05;100744.06;105166;1286;75821;-82
2022/05/12 04:47:56;;;;;;;5.00;0.90;;;;;;;10.73;84.14;100756.01;105338;1284;70073;-82
2022/05/12 04:50:32;;;;;;;4.40;1.20;;;;;;;10.73;84.40;100751.23;105210;1284;72990;-83
2022/05/12 04:53:00;;;;;;;5.20;0.80;;;;;;;10.73;84.77;100747.98;105310;1284;62253;-83
2022/05/12 04:55:35;;;;;;;3.60;1.30;;;;;;;10.76;84.52;100755.13;105315;1286;62032;-82
2022/05/12 04:58:06;;;;;;;4.90;1.20;;;;;;;10.77;84.33;100762.09;104978;1287;76015;-82
2022/05/12 05:00:40;;;;;;;2.00;0.60;;;;;;;10.79;84.53;100759.71;105183;1287;71507;-82
2022/05/12 05:03:08;;;;;;;;;;;;;;;10.82;84.42;100764.38;106176;1287;73002;-83
2022/05/12 05:05:40;;;;;;;5.50;0.90;;;;;;;10.84;84.01;100772.27;105703;1286;63017;-85
2022/05/12 05:08:07;;;;;;;4.50;0.90;;;;;;;10.86;83.80;100775.37;105083;1284;62826;-84
2022/05/12 05:11:09;;;;;;;3.80;0.90;;;;;;;10.90;83.72;100775.14;105283;1276;164717;-86
2022/05/12 05:13:50;;;;;;;1.20;0.70;;;;;;;10.93;83.38;100779.66;105844;1287;71812;-88
2022/05/12 05:16:29;;;;;;;5.80;0.80;;;;;;;10.98;83.24;100783.84;105513;1287;75226;-87
2022/05/12 05:19:13;;;;;;;1.80;0.80;;;;;;;11.02;82.24;100793.78;105679;1286;63635;-91
2022/05/12 05:21:51;;;;;;;2.50;0.70;;;;;;;11.04;82.26;100799.02;106063;1274;62087;-93
2022/05/12 05:24:31;;;;;;;3.40;1.10;;;;;;;11.12;82.82;100798.88;105972;1284;75825;-83
2022/05/12 05:27:06;;;;;;;4.50;1.00;;;;;;;11.16;82.25;100804.92;105874;1284;71375;-87
2022/05/12 05:29:45;;;;;;;3.90;0.90;;;;;;;11.25;81.96;100808.14;105895;1284;73492;-84
2022/05/12 05:32:14;;;;;;;3.30;1.00;;;;;;;11.29;80.49;100812.59;105508;1287;62506;-84
2022/05/12 05:34:53;;;;;;;1.40;0.70;;;;;;;11.33;80.23;100822.38;105724;1284;60413;-86
2022/05/12 05:37:19;;;;;;;3.40;0.70;;;;;;;11.37;79.49;100829.23;105743;1284;75757;-81
2022/05/12 05:39:46;;;;;;;4.30;1.00;;;;;;;11.41;79.24;100830.50;105508;1286;72586;-81
2022/05/12 05:42:16;;;;;;;1.90;0.80;;;;;;;11.44;79.46;100837.11;105265;1287;74004;-80
2022/05/12 05:44:45;;;;;;;6.90;1.20;;;;;;;11.49;79.31;100843.44;105381;1287;62275;-80
2022/05/12 05:47:14;;;;;;;2.20;0.60;;;;;;;11.51;77.70;100852.92;105495;1287;62609;-83
2022/05/12 05:49:42;;;;;;;1.80;0.70;;;;;;;11.54;78.54;100856.48;105360;1287;75791;-79
2022/05/12 05:54:59;;;;;;;3.50;0.90;;;;;;;11.63;78.29;100866.94;105851;1284;72909;-81
2022/05/12 05:57:33;;;;;;;2.30;1.10;;;;;;;11.68;77.23;100864.98;105696;1284;61934;-80
2022/05/12 06:00:04;;;;;;;1.20;0.60;;;;;;;11.71;77.30;100870.27;105566;1284;62102;-80
2022/05/12 06:02:33;;;;;;;6.60;0.80;;;;;;;11.77;77.35;100872.92;105675;1284;75471;-81
2022/05/12 06:05:00;;;;;;;1.30;0.70;;;;;;;11.79;76.93;100874.95;105741;1284;72600;-81
2022/05/12 06:07:27;;;;;;;3.10;1.50;;;;;;;11.80;77.00;100878.40;105578;1284;73360;-81
2022/05/12 06:09:53;;;;;;;4.00;1.50;;;;;;;11.85;76.53;100885.31;105887;1284;63253;-84
2022/05/12 06:12:25;;;;;;;3.90;1.00;;;;;;;11.94;76.92;100889.61;105505;1286;62093;-83
2022/05/12 06:15:03;;;;;;;;;;;;;;;;;;;;;
2022/05/12 06:17:35;;;;;;;2.30;0.70;;;;;;;12.04;76.91;100887.34;105699;1286;72760;-81
2022/05/12 06:20:06;;;;;;;2.40;0.70;;;;;;;12.09;76.39;100895.31;105916;1287;72974;-83
2022/05/12 06:22:37;;;;;;;1.20;0.40;;;;;;;12.13;75.34;100901.25;106052;1285;61667;-84
2022/05/12 06:25:10;;;;;;;3.60;0.90;;;;;;;12.17;75.67;100896.83;105663;1286;61587;-81
2022/05/12 06:27:37;;;;;;;4.00;0.90;;;;;;;12.19;75.31;100899.77;105410;1286;75695;-85
2022/05/12 06:30:13;;;;;;;3.30;1.10;;;;;;;12.24;75.62;100918.70;105538;1286;71842;-83
2022/05/12 06:32:43;;;;;;;2.60;0.70;;;;;;;12.30;75.24;100914.99;105604;1286;72813;-82
2022/05/12 06:35:13;;;;;;;1.10;0.80;;;;;;;12.38;75.45;100919.17;105548;1285;63702;-84
2022/05/12 06:37:40;;;;;;;5.50;1.00;;;;;;;12.41;74.96;100928.09;105467;1286;61988;-80
2022/05/12 06:40:08;;;;;;;2.10;0.70;;;;;;;12.51;75.44;100927.02;105715;1286;77525;-82
2022/05/12 06:42:35;;;;;;;2.40;0.90;;;;;;;12.56;74.11;100938.36;105817;1286;71859;-81
2022/05/12 06:45:04;;;;;;;1.50;0.80;;;;;;;12.55;73.71;100950.91;105455;1287;73054;-81
2022/05/12 06:47:56;;;;;;;;;;;;;;;;;;;;;
2022/05/12 06:50:29;;;;;;;1.60;0.90;;;;;;;12.77;74.87;100951.19;105661;1284;62034;-81
2022/05/12 06:52:56;;;;;;;5.40;1.70;;;;;;;12.88;73.86;100953.71;105771;1285;75171;-83
2022/05/12 06:55:27;;;;;;;3.50;1.00;;;;;;;12.93;73.55;100955.03;105579;1285;72813;-80
2022/05/12 06:57:55;;;;;;;4.10;1.00;;;;;;;12.96;72.87;100960.02;105584;1285;72959;-86
2022/05/12 07:00:29;;;;;;;4.20;0.90;;;;;;;13.07;73.27;100964.26;105800;1286;63297;-82
2022/05/12 07:03:11;;;;;;;2.80;1.00;;;;;;;13.14;72.31;100963.20;105490;1284;61724;-80
2022/05/12 07:05:41;;;;;;;3.10;0.70;;;;;;;13.21;71.86;100965.95;105710;1285;75956;-83
2022/05/12 07:08:22;;;;;;;2.90;1.40;;;;;;;13.21;71.59;100974.98;105447;1286;71488;-83
2022/05/12 07:10:54;;;;;;;3.90;1.00;;;;;;;13.25;71.89;100978.02;105839;1285;72105;-82
2022/05/12 07:13:23;;;;;;;5.90;1.10;;;;;;;13.43;72.33;100988.71;105380;1286;63179;-81
2022/05/12 07:16:21;;;;;;;5.40;1.30;;;;;;;13.54;70.79;100997.79;105730;1285;62113;-82
2022/05/12 07:18:49;;;;;;;3.00;0.90;;;;;;;13.51;70.99;100993.16;105416;1285;75759;-82
2022/05/12 07:27:05;;;;;;;2.60;1.10;;;;;;;13.49;70.98;101006.52;105731;1285;65338;-83
2022/05/12 07:29:34;;;;;;;3.40;1.20;;;;;;;13.61;70.04;101008.08;105599;1285;61184;-83
2022/05/12 07:32:04;;;;;;;4.50;1.00;;;;;;;13.74;69.50;101006.92;105620;1285;77181;-84
2022/05/12 07:34:31;;;;;;;3.30;1.00;;;;;;;13.82;69.18;101014.52;105321;1285;71461;-82
2022/05/12 07:37:12;;;;;;;1.30;0.90;;;;;;;13.91;69.02;101013.13;105570;1286;72100;-86
2022/05/12 07:39:38;;;;;;;2.60;0.90;;;;;;;13.96;67.29;101025.95;105677;1285;62838;-84
2022/05/12 07:42:10;;;;;;;5.50;1.20;;;;;;;14.01;68.22;101017.05;105591;1285;61952;-83
2022/05/12 07:44:39;;;;;;;5.60;1.00;;;;;;;14.07;68.11;101030.73;105633;1285;74699;-81
2022/05/12 07:47:10;;;;;;;2.70;0.90;;;;;;;14.19;67.54;101025.20;105497;1286;71385;-83
2022/05/12 07:49:38;;;;;;;2.20;1.00;;;;;;;14.16;67.99;101034.52;105377;1285;73187;-84
2022/05/12 07:52:06;;;;;;;5.80;1.10;;;;;;;14.26;68.54;101030.96;105455;1286;62303;-82
2022/05/12 07:54:37;;;;;;;2.20;0.80;;;;;;;14.43;68.90;101035.92;105523;1285;62092;-81
2022/05/12 07:57:24;;;;;;;3.40;1.50;;;;;;;14.42;66.50;101036.78;105067;1286;75806;-82
2022/05/12 07:59:53;;;;;;;4.00;1.10;;;;;;;14.51;67.02;101044.28;105357;1285;72677;-85
2022/05/12 08:02:26;;;;;;;4.30;1.10;;;;;;;14.53;65.53;101048.92;105122;1287;72934;-89
2022/05/12 08:04:52;;;;;;;2.80;0.90;;;;;;;14.62;65.90;101048.03;105426;1286;63914;-81
2022/05/12 08:07:19;;;;;;;4.80;1.20;;;;;;;14.71;66.56;101057.46;106714;1285;61948;-82
2022/05/12 08:09:49;;;;;;;4.30;1.10;;;;;;;14.80;65.64;101059.50;107185;1286;77206;-83
2022/05/12 08:12:16;;;;;;;6.10;2.20;;;;;;;14.94;65.20;101067.53;107413;1285;71857;-80
2022/05/12 08:14:46;;;;;;;2.00;0.80;;;;;;;14.94;62.93;101060.77;107480;1285;73277;-85
2022/05/12 08:17:13;;;;;;;8.00;1.30;;;;;;;14.91;63.78;101064.69;106831;1285;63016;-82
2022/05/12 08:19:54;;;;;;;3.30;1.00;;;;;;;14.77;62.56;101068.14;106049;1285;62904;-87
2022/05/12 08:22:20;;;;;;;5.30;1.20;;;;;;;14.76;63.56;101067.48;105528;1284;73466;-82
2022/05/12 08:25:16;;;;;;;1.80;0.70;;;;;;;14.84;63.11;101070.05;105637;1285;71712;-86
2022/05/12 08:27:43;;;;;;;2.50;0.70;;;;;;;14.91;62.16;101078.09;105151;1285;74189;-82
2022/05/12 08:30:58;;;;;;;3.40;0.90;;;;;;;15.08;62.36;101072.53;105227;1285;62126;-84
2022/05/12 08:33:08;;;;;;;3.10;0.70;;;;;;;15.38;62.43;101066.04;105242;1285;62058;-82
2022/05/12 08:35:50;;;;;;;3.80;1.10;;;;;;;15.50;60.72;101082.16;105541;1285;75805;-82
2022/05/12 08:38:19;;;;;;;5.90;1.00;;;;;;;15.59;59.83;101082.73;105650;1286;72408;-85
2022/05/12 08:40:59;;;;;;;3.40;0.70;;;;;;;15.51;58.74;101081.92;105629;1285;73706;-81
2022/05/12 08:43:56;;;;;;;3.80;0.80;;;;;;;15.56;58.81;101072.14;105509;1285;61974;-81
2022/05/12 08:46:37;;;;;;;3.30;1.00;;;;;;;15.60;59.53;101069.62;105597;1285;60461;-83
2022/05/12 08:49:35;;;;;;;1.40;0.60;;;;;;;15.60;58.89;101080.06;105766;1285;75919;-82
2022/05/12 08:53:00;;;;;;;2.90;0.70;;;;;;;15.69;58.31;101087.85;105215;1287;71310;-83
2022/05/12 08:56:08;;;;;;;;;;;;;;;;;;;;;
2022/05/12 08:58:50;;;;;;;3.30;1.10;;;;;;;16.02;56.91;101079.67;105476;1286;62105;-80
2022/05/12 09:01:51;;;;;;;2.60;0.60;;;;;;;16.14;56.52;101085.11;105211;1285;61827;-85
2022/05/12 09:05:02;;;;;;;;;;;;;;;;;;;;;
2022/05/12 09:08:05;;;;;;;4.10;1.20;;;;;;;16.24;55.82;101087.43;105349;1285;72091;-82
2022/05/12 09:11:06;;;;;;;4.40;0.80;;;;;;;16.23;55.13;101087.55;105205;1285;74289;-79
2022/05/12 09:14:12;;;;;;;;;;;;;;;;;;;;;
2022/05/12 09:16:42;;;;;;;2.10;0.80;;;;;;;16.36;55.39;101090.67;105319;1285;62059;-84
2022/05/12 09:19:15;;;;;;;5.60;1.40;;;;;;;16.46;55.99;101089.29;105386;1285;75448;-82
2022/05/12 09:21:42;;;;;;;4.30;0.80;;;;;;;16.40;53.93;101103.37;105263;1285;73328;-82
2022/05/12 09:24:09;;;;;;;2.20;0.70;;;;;;;16.26;53.93;101100.94;105410;1285;72941;-82
2022/05/12 09:26:46;;;;;;;3.10;0.60;;;;;;;16.17;54.98;101097.55;105363;1285;62096;-82
2022/05/12 09:29:14;;;;;;;1.30;0.70;;;;;;;16.24;55.15;101096.95;105304;1285;62238;-82
2022/05/12 09:31:51;;;;;;;3.90;0.80;;;;;;;16.32;54.27;101095.65;105550;1285;75947;-83
2022/05/12 09:34:21;;;;;;;3.20;1.30;;;;;;;16.61;54.25;101106.31;105366;1285;72999;-86
2022/05/12 09:36:47;;;;;;;2.50;0.80;;;;;;;16.73;52.84;101099.06;105433;1285;73156;-83
2022/05/12 09:39:45;;;;;;;2.40;0.90;;;;;;;16.86;52.99;101090.40;105394;1285;60919;-82
2022/05/12 09:42:45;;;;;;;4.20;0.70;;;;;;;17.17;53.59;101087.03;104801;1286;532349;-82
2022/05/12 09:45:15;;;;;;;2.70;0.70;;;;;;;17.29;51.24;101102.12;105354;1285;77383;-85
2022/05/12 09:47:45;;;;;;;2.40;0.70;;;;;;;17.11;50.01;101098.02;105345;1285;71472;-83
2022/05/12 09:50:16;;;;;;;0.80;0.50;;;;;;;17.14;50.55;101094.22;105585;1285;75515;-83
2022/05/12 09:52:58;;;;;;;3.10;0.80;;;;;;;17.20;51.62;101089.34;105467;1285;62092;-83
2022/05/12 09:55:36;;;;;;;3.00;0.90;;;;;;;17.08;50.88;101099.33;105392;1285;62190;-84
2022/05/12 09:58:25;;;;;;;3.00;0.90;;;;;;;17.06;50.52;101098.63;105326;1285;76954;-84
2022/05/12 10:01:13;;;;;;;3.60;0.80;;;;;;;17.19;49.51;101092.30;105240;1285;71091;-85
2022/05/12 10:10:04;;;;;;;;;;;;;;;;;;;;;
2022/05/12 10:12:38;;;;;;;1.60;0.60;;;;;;;17.60;47.09;101085.52;105422;1285;75717;-84
2022/05/12 10:15:22;;;;;;;1.00;0.60;;;;;;;17.65;47.81;101086.95;105645;1285;72390;-85
2022/05/12 10:18:25;;;;;;;3.40;0.60;;;;;;;17.95;47.58;101097.45;105253;1285;72990;-83
2022/05/12 10:20:54;;;;;;;2.60;0.80;;;;;;;18.22;46.73;101090.63;105555;1286;62128;-83
2022/05/12 10:23:53;;;;;;;6.20;0.80;;;;;;;18.30;46.70;101094.98;105376;1286;62069;-83
2022/05/12 10:26:42;;;;;;;3.70;0.70;;;;;;;18.16;45.07;101095.41;106258;1286;75732;-84
2022/05/12 10:29:47;;;;;;;1.60;0.60;;;;;;;17.97;45.78;101095.17;105452;1287;71755;-82
2022/05/12 10:32:57;;;;;;;5.40;0.90;;;;;;;17.86;46.39;101096.42;105414;1285;74425;-83
2022/05/12 10:35:38;;;;;;;4.00;0.70;;;;;;;18.19;47.10;101096.05;104440;1293;62209;-87
2022/05/12 10:38:29;;;;;;;1.90;0.60;;;;;;;18.42;44.63;101094.62;105194;1285;61992;-80
2022/05/12 10:41:21;;;;;;;1.60;0.60;;;;;;;18.51;44.30;101100.52;105332;1285;76943;-88
2022/05/12 10:44:13;;;;;;;3.40;0.70;;;;;;;18.47;43.93;101104.30;105319;1285;70039;-83
2022/05/12 10:46:52;;;;;;;3.00;0.70;;;;;;;18.60;44.33;101094.73;105228;1285;73055;-86
2022/05/12 10:49:27;;;;;;;2.30;0.80;;;;;;;18.70;43.04;101100.21;105418;1285;62048;-85
2022/05/12 10:52:12;;;;;;;3.70;1.00;;;;;;;18.47;42.94;101096.88;105583;1285;62096;-86
2022/05/12 10:55:18;;;;;;;2.50;0.60;;;;;;;18.30;43.35;101097.77;105448;1285;76008;-81
2022/05/12 10:58:05;;;;;;;2.10;0.80;;;;;;;18.14;44.17;101098.55;105496;1284;71534;-80
2022/05/12 11:00:55;;;;;;;1.80;0.60;;;;;;;17.91;44.87;101099.21;105309;1285;74265;-80
2022/05/12 11:03:37;;;;;;;1.80;0.80;;;;;;;17.76;45.88;101098.09;105411;1285;62205;-81
2022/05/12 11:06:16;;;;;;;1.90;0.80;;;;;;;17.76;45.03;101093.05;105553;1284;60636;-80
2022/05/12 11:08:50;;;;;;;1.50;0.70;;;;;;;17.90;44.29;101091.55;105413;1285;76055;-81
2022/05/12 11:11:22;;;;;;;2.40;0.80;;;;;;;18.06;43.25;101090.05;105324;1286;72493;-85
2022/05/12 11:14:23;;;;;;;4.50;0.70;;;;;;;18.25;43.21;101091.21;105493;1285;74251;-82
2022/05/12 11:17:04;;;;;;;1.90;0.60;;;;;;;18.46;42.87;101084.34;105331;1285;62098;-80
2022/05/12 11:19:31;;;;;;;1.90;1.00;;;;;;;18.51;42.86;101090.80;105246;1284;61974;-83
2022/05/12 11:22:20;;;;;;;2.70;1.00;;;;;;;18.34;40.56;101086.21;105180;1285;75603;-81
2022/05/12 11:24:57;;;;;;;3.30;1.20;;;;;;;18.13;41.56;101081.76;105412;1285;72519;-85
2022/05/12 11:27:31;;;;;;;1.90;0.70;;;;;;;17.99;42.32;101079.20;105044;1285;72969;-83
2022/05/12 11:30:17;;;;;;;1.60;0.60;;;;;;;18.03;42.65;101085.91;105063;1285;62125;-80
2022/05/12 11:32:56;;;;;;;2.60;1.00;;;;;;;18.17;41.74;101082.61;105416;1285;62199;-80
2022/05/12 11:35:28;;;;;;;4.40;0.60;;;;;;;18.40;41.10;101080.14;105639;1285;76862;-82
2022/05/12 11:38:05;;;;;;;1.70;0.50;;;;;;;18.68;41.76;101081.71;105128;1285;73690;-81
2022/05/12 11:40:44;;;;;;;1.70;0.70;;;;;;;19.00;41.80;101078.73;105159;1285;74302;-85
2022/05/12 11:46:53;;;;;;;3.70;0.80;;;;;;;19.34;39.82;101077.23;105585;1285;62181;-82
2022/05/12 11:49:52;;;;;;;2.60;0.70;;;;;;;19.42;38.98;101072.63;105529;1285;76943;-83
2022/05/12 11:52:33;;;;;;;2.30;0.80;;;;;;;19.70;39.36;101070.11;105529;1285;71546;-83
2022/05/12 11:55:04;;;;;;;3.90;0.60;;;;;;;19.64;39.20;101072.82;105520;1284;73298;-82
2022/05/12 11:57:41;;;;;;;3.10;0.70;;;;;;;19.82;40.00;101072.66;105581;1285;62089;-82
2022/05/12 12:00:34;;;;;;;2.00;0.70;;;;;;;20.21;39.53;101073.05;105322;1285;61971;-81
2022/05/12 12:03:19;;;;;;;2.00;0.80;;;;;;;20.50;38.55;101073.27;105713;1285;75991;-83
2022/05/12 12:05:51;;;;;;;4.10;0.50;;;;;;;20.90;38.27;101071.05;105374;1286;71661;-80
2022/05/12 12:08:43;;;;;;;1.10;0.30;;;;;;;21.20;34.90;101072.63;105174;1285;75805;-81
2022/05/12 12:11:13;;;;;;;3.20;0.50;;;;;;;21.56;34.15;101068.02;105717;1285;62104;-80
2022/05/12 12:13:51;;;;;;;1.20;0.40;;;;;;;21.86;33.05;101066.52;106722;1285;61930;-80
2022/05/12 12:16:20;;;;;;;3.00;0.90;;;;;;;22.05;32.27;101069.05;106970;1284;75907;-80
2022/05/12 12:18:55;;;;;;;2.30;0.50;;;;;;;22.22;32.14;101058.08;106628;1286;72480;-80
2022/05/12 12:21:37;;;;;;;3.00;0.50;;;;;;;22.55;32.19;101061.90;106626;1285;72967;-81
2022/05/12 12:24:19;;;;;;;2.30;0.40;;;;;;;22.82;31.87;101058.75;106830;1286;62003;-81
2022/05/12 12:26:55;;;;;;;2.10;0.50;;;;;;;22.84;31.47;101061.00;105607;1285;62882;-81